sensor_id;sensor_type;location;lat;lon;timestamp;pressure;altitude;pressure_sealevel;temperature;humidity
18201;BME280;9226;47.858;9.594;2023-07-09T00:02:23;95634.78;;;22.68;49.50
18201;BME280;9226;47.858;9.594;2023-07-09T00:04:49;95630.78;;;22.64;49.75
18201;BME280;9226;47.858;9.594;2023-07-09T00:07:17;95629.50;;;22.59;50.38
18201;BME280;9226;47.858;9.594;2023-07-09T00:09:43;95636.53;;;22.54;50.50
18201;BME280;9226;47.858;9.594;2023-07-09T00:12:16;95636.47;;;22.47;51.38
18201;BME280;9226;47.858;9.594;2023-07-09T00:14:42;95636.09;;;22.50;50.39
18201;BME280;9226;47.858;9.594;2023-07-09T00:17:31;95647.31;;;22.47;50.64
18201;BME280;9226;47.858;9.594;2023-07-09T00:19:59;95642.66;;;22.41;51.09
18201;BME280;9226;47.858;9.594;2023-07-09T00:22:24;95648.06;;;22.41;51.17
18201;BME280;9226;47.858;9.594;2023-07-09T00:24:52;95640.06;;;22.33;51.77
18201;BME280;9226;47.858;9.594;2023-07-09T00:27:23;95638.50;;;22.23;52.17
18201;BME280;9226;47.858;9.594;2023-07-09T00:29:50;95636.59;;;22.17;52.34
18201;BME280;9226;47.858;9.594;2023-07-09T00:32:19;95637.09;;;22.06;52.61
18201;BME280;9226;47.858;9.594;2023-07-09T00:34:48;95636.81;;;22.01;52.62
18201;BME280;9226;47.858;9.594;2023-07-09T00:37:18;95633.47;;;21.99;52.57
18201;BME280;9226;47.858;9.594;2023-07-09T00:39:45;95642.59;;;21.98;52.68
18201;BME280;9226;47.858;9.594;2023-07-09T00:42:16;95646.06;;;21.92;53.13
18201;BME280;9226;47.858;9.594;2023-07-09T00:44:45;95643.47;;;21.83;53.18
18201;BME280;9226;47.858;9.594;2023-07-09T00:49:43;95640.88;;;21.75;53.39
18201;BME280;9226;47.858;9.594;2023-07-09T00:52:24;95641.06;;;21.74;53.63
18201;BME280;9226;47.858;9.594;2023-07-09T00:54:53;95653.09;;;21.71;53.25
18201;BME280;9226;47.858;9.594;2023-07-09T00:57:23;95650.13;;;21.66;53.83
18201;BME280;9226;47.858;9.594;2023-07-09T00:59:58;95658.03;;;21.67;53.82
18201;BME280;9226;47.858;9.594;2023-07-09T01:02:26;95658.41;;;21.64;53.51
18201;BME280;9226;47.858;9.594;2023-07-09T01:04:55;95651.53;;;21.62;53.79
18201;BME280;9226;47.858;9.594;2023-07-09T01:07:23;95663.34;;;21.61;53.64
18201;BME280;9226;47.858;9.594;2023-07-09T01:09:48;95663.72;;;21.58;53.78
18201;BME280;9226;47.858;9.594;2023-07-09T01:12:17;95661.41;;;21.55;53.85
18201;BME280;9226;47.858;9.594;2023-07-09T01:14:44;95652.84;;;21.51;53.95
18201;BME280;9226;47.858;9.594;2023-07-09T01:17:14;95666.53;;;21.49;53.97
18201;BME280;9226;47.858;9.594;2023-07-09T01:19:42;95660.16;;;21.42;54.36
18201;BME280;9226;47.858;9.594;2023-07-09T01:22:10;95650.41;;;21.41;54.40
18201;BME280;9226;47.858;9.594;2023-07-09T01:27:34;95648.53;;;21.42;54.26
18201;BME280;9226;47.858;9.594;2023-07-09T01:30:02;95649.28;;;21.36;54.52
18201;BME280;9226;47.858;9.594;2023-07-09T01:32:28;95652.81;;;21.36;53.89
18201;BME280;9226;47.858;9.594;2023-07-09T01:35:02;95662.59;;;21.37;54.04
18201;BME280;9226;47.858;9.594;2023-07-09T01:37:33;95662.22;;;21.40;53.80
18201;BME280;9226;47.858;9.594;2023-07-09T01:39:59;95663.72;;;21.43;53.67
18201;BME280;9226;47.858;9.594;2023-07-09T01:42:26;95655.63;;;21.43;53.69
18201;BME280;9226;47.858;9.594;2023-07-09T01:44:54;95657.47;;;21.42;54.06
18201;BME280;9226;47.858;9.594;2023-07-09T01:47:20;95655.13;;;21.39;54.20
18201;BME280;9226;47.858;9.594;2023-07-09T01:49:46;95658.78;;;21.31;54.37
18201;BME280;9226;47.858;9.594;2023-07-09T01:52:12;95660.00;;;21.29;54.37
18201;BME280;9226;47.858;9.594;2023-07-09T01:54:38;95653.75;;;21.28;54.59
18201;BME280;9226;47.858;9.594;2023-07-09T01:57:19;95659.34;;;21.27;54.73
18201;BME280;9226;47.858;9.594;2023-07-09T01:59:49;95659.34;;;21.27;54.28
18201;BME280;9226;47.858;9.594;2023-07-09T02:02:15;95663.25;;;21.24;54.55
18201;BME280;9226;47.858;9.594;2023-07-09T02:04:40;95668.00;;;21.22;54.58
18201;BME280;9226;47.858;9.594;2023-07-09T02:07:08;95657.78;;;21.18;54.93
18201;BME280;9226;47.858;9.594;2023-07-09T02:09:33;95664.19;;;21.17;54.85
18201;BME280;9226;47.858;9.594;2023-07-09T02:11:59;95665.38;;;21.14;54.79
18201;BME280;9226;47.858;9.594;2023-07-09T02:14:24;95660.72;;;21.08;55.47
18201;BME280;9226;47.858;9.594;2023-07-09T02:16:50;95665.09;;;21.09;54.95
18201;BME280;9226;47.858;9.594;2023-07-09T02:19:15;95660.94;;;21.06;55.17
18201;BME280;9226;47.858;9.594;2023-07-09T02:21:40;95662.31;;;21.02;55.41
18201;BME280;9226;47.858;9.594;2023-07-09T02:24:06;95668.34;;;21.04;55.21
18201;BME280;9226;47.858;9.594;2023-07-09T02:26:31;95662.13;;;21.04;55.36
18201;BME280;9226;47.858;9.594;2023-07-09T02:28:57;95667.53;;;21.04;55.25
18201;BME280;9226;47.858;9.594;2023-07-09T02:31:22;95664.63;;;21.05;55.25
18201;BME280;9226;47.858;9.594;2023-07-09T02:33:47;95665.84;;;21.03;55.47
18201;BME280;9226;47.858;9.594;2023-07-09T02:36:13;95671.97;;;20.96;56.04
18201;BME280;9226;47.858;9.594;2023-07-09T02:38:38;95664.91;;;20.95;56.08
18201;BME280;9226;47.858;9.594;2023-07-09T02:41:03;95664.06;;;20.95;56.13
18201;BME280;9226;47.858;9.594;2023-07-09T02:43:29;95665.75;;;20.96;55.66
18201;BME280;9226;47.858;9.594;2023-07-09T02:45:54;95665.47;;;20.91;56.39
18201;BME280;9226;47.858;9.594;2023-07-09T02:48:20;95663.13;;;20.88;56.48
18201;BME280;9226;47.858;9.594;2023-07-09T02:50:45;95676.03;;;20.77;57.19
18201;BME280;9226;47.858;9.594;2023-07-09T02:53:10;95674.06;;;20.71;57.52
18201;BME280;9226;47.858;9.594;2023-07-09T02:55:36;95682.13;;;20.71;57.52
18201;BME280;9226;47.858;9.594;2023-07-09T02:58:01;95683.19;;;20.70;57.28
18201;BME280;9226;47.858;9.594;2023-07-09T03:00:26;95678.16;;;20.67;57.55
18201;BME280;9226;47.858;9.594;2023-07-09T03:02:52;95692.63;;;20.66;57.36
18201;BME280;9226;47.858;9.594;2023-07-09T03:05:17;95693.31;;;20.60;58.18
18201;BME280;9226;47.858;9.594;2023-07-09T03:07:43;95692.41;;;20.53;58.31
18201;BME280;9226;47.858;9.594;2023-07-09T03:10:08;95699.63;;;20.52;58.30
18201;BME280;9226;47.858;9.594;2023-07-09T03:12:34;95698.97;;;20.50;58.45
18201;BME280;9226;47.858;9.594;2023-07-09T03:14:59;95697.53;;;20.39;59.35
18201;BME280;9226;47.858;9.594;2023-07-09T03:17:24;95697.53;;;20.39;59.20
18201;BME280;9226;47.858;9.594;2023-07-09T03:19:50;95697.06;;;20.36;59.55
18201;BME280;9226;47.858;9.594;2023-07-09T03:22:15;95705.31;;;20.34;59.58
18201;BME280;9226;47.858;9.594;2023-07-09T03:24:41;95702.44;;;20.36;59.23
18201;BME280;9226;47.858;9.594;2023-07-09T03:27:08;95701.13;;;20.32;59.66
18201;BME280;9226;47.858;9.594;2023-07-09T03:29:34;95703.34;;;20.28;59.86
18201;BME280;9226;47.858;9.594;2023-07-09T03:31:59;95700.34;;;20.23;60.24
18201;BME280;9226;47.858;9.594;2023-07-09T03:34:25;95704.06;;;20.22;60.15
18201;BME280;9226;47.858;9.594;2023-07-09T03:36:50;95699.69;;;20.21;60.01
18201;BME280;9226;47.858;9.594;2023-07-09T03:39:15;95698.38;;;20.17;60.26
18201;BME280;9226;47.858;9.594;2023-07-09T03:41:41;95700.06;;;20.18;60.62
18201;BME280;9226;47.858;9.594;2023-07-09T03:44:06;95706.09;;;20.20;60.45
18201;BME280;9226;47.858;9.594;2023-07-09T03:46:32;95712.13;;;20.22;60.38
18201;BME280;9226;47.858;9.594;2023-07-09T03:48:58;95704.69;;;20.24;60.74
18201;BME280;9226;47.858;9.594;2023-07-09T03:51:24;95706.03;;;20.28;60.56
18201;BME280;9226;47.858;9.594;2023-07-09T03:53:50;95705.03;;;20.29;60.64
18201;BME280;9226;47.858;9.594;2023-07-09T03:56:15;95715.81;;;20.29;60.88
18201;BME280;9226;47.858;9.594;2023-07-09T03:58:40;95720.16;;;20.30;60.70
18201;BME280;9226;47.858;9.594;2023-07-09T04:01:06;95712.75;;;20.32;60.86
18201;BME280;9226;47.858;9.594;2023-07-09T04:03:31;95715.75;;;20.37;60.82
18201;BME280;9226;47.858;9.594;2023-07-09T04:05:57;95719.19;;;20.46;60.56
18201;BME280;9226;47.858;9.594;2023-07-09T04:08:22;95712.09;;;20.53;60.63
18201;BME280;9226;47.858;9.594;2023-07-09T04:10:47;95720.78;;;20.64;60.77
18201;BME280;9226;47.858;9.594;2023-07-09T04:13:13;95710.97;;;20.71;61.10
18201;BME280;9226;47.858;9.594;2023-07-09T04:15:38;95716.47;;;20.77;61.27
18201;BME280;9226;47.858;9.594;2023-07-09T04:18:04;95709.44;;;20.91;60.97
18201;BME280;9226;47.858;9.594;2023-07-09T04:20:29;95718.59;;;21.05;60.87
18201;BME280;9226;47.858;9.594;2023-07-09T04:22:55;95716.03;;;21.27;60.22
18201;BME280;9226;47.858;9.594;2023-07-09T04:25:20;95717.16;;;21.47;59.86
18201;BME280;9226;47.858;9.594;2023-07-09T04:27:45;95718.28;;;21.68;59.46
18201;BME280;9226;47.858;9.594;2023-07-09T04:30:13;95723.75;;;21.90;59.38
18201;BME280;9226;47.858;9.594;2023-07-09T04:32:40;95722.97;;;22.11;59.06
18201;BME280;9226;47.858;9.594;2023-07-09T04:35:06;95727.63;;;22.32;58.80
18201;BME280;9226;47.858;9.594;2023-07-09T04:37:32;95729.28;;;22.54;58.61
18201;BME280;9226;47.858;9.594;2023-07-09T04:39:57;95722.41;;;22.73;58.61
18201;BME280;9226;47.858;9.594;2023-07-09T04:42:23;95720.53;;;22.95;57.91
18201;BME280;9226;47.858;9.594;2023-07-09T04:44:48;95714.88;;;23.12;57.66
18201;BME280;9226;47.858;9.594;2023-07-09T04:47:14;95718.63;;;23.46;57.42
18201;BME280;9226;47.858;9.594;2023-07-09T04:49:40;95719.69;;;23.80;56.71
18201;BME280;9226;47.858;9.594;2023-07-09T04:52:06;95731.97;;;24.24;55.96
18201;BME280;9226;47.858;9.594;2023-07-09T04:54:31;95725.25;;;24.75;54.72
18201;BME280;9226;47.858;9.594;2023-07-09T04:56:58;95726.09;;;25.16;53.39
18201;BME280;9226;47.858;9.594;2023-07-09T04:59:24;95724.00;;;25.58;52.87
18201;BME280;9226;47.858;9.594;2023-07-09T05:01:50;95719.25;;;26.12;51.51
18201;BME280;9226;47.858;9.594;2023-07-09T05:04:15;95719.03;;;26.59;50.68
18201;BME280;9226;47.858;9.594;2023-07-09T05:06:41;95717.06;;;27.04;49.32
18201;BME280;9226;47.858;9.594;2023-07-09T05:09:07;95716.88;;;27.31;48.79
18201;BME280;9226;47.858;9.594;2023-07-09T05:11:34;95719.66;;;27.68;47.53
18201;BME280;9226;47.858;9.594;2023-07-09T05:14:00;95725.66;;;28.32;46.68
18201;BME280;9226;47.858;9.594;2023-07-09T05:16:26;95723.84;;;28.75;45.29
18201;BME280;9226;47.858;9.594;2023-07-09T05:18:51;95724.25;;;29.45;44.64
18201;BME280;9226;47.858;9.594;2023-07-09T05:21:17;95720.38;;;30.17;43.34
18201;BME280;9226;47.858;9.594;2023-07-09T05:23:42;95722.28;;;30.57;42.19
18201;BME280;9226;47.858;9.594;2023-07-09T05:26:09;95717.28;;;31.11;40.49
18201;BME280;9226;47.858;9.594;2023-07-09T05:28:34;95728.00;;;31.47;39.87
18201;BME280;9226;47.858;9.594;2023-07-09T05:31:00;95725.38;;;31.52;38.82
18201;BME280;9226;47.858;9.594;2023-07-09T05:33:25;95724.88;;;31.38;38.32
18201;BME280;9226;47.858;9.594;2023-07-09T05:35:50;95722.88;;;31.33;37.15
18201;BME280;9226;47.858;9.594;2023-07-09T05:38:16;95716.38;;;31.06;38.03
18201;BME280;9226;47.858;9.594;2023-07-09T05:40:43;95722.09;;;30.75;37.92
18201;BME280;9226;47.858;9.594;2023-07-09T05:43:09;95723.31;;;30.51;37.75
18201;BME280;9226;47.858;9.594;2023-07-09T05:45:34;95724.31;;;30.21;37.87
18201;BME280;9226;47.858;9.594;2023-07-09T05:48:01;95724.56;;;30.07;38.68
18201;BME280;9226;47.858;9.594;2023-07-09T05:50:27;95718.84;;;30.09;38.70
18201;BME280;9226;47.858;9.594;2023-07-09T05:52:53;95724.19;;;30.16;39.79
18201;BME280;9226;47.858;9.594;2023-07-09T05:55:19;95726.56;;;30.24;39.36
18201;BME280;9226;47.858;9.594;2023-07-09T05:57:44;95715.38;;;30.25;39.71
18201;BME280;9226;47.858;9.594;2023-07-09T06:00:10;95723.09;;;30.69;39.68
18201;BME280;9226;47.858;9.594;2023-07-09T06:02:35;95718.78;;;31.02;38.31
18201;BME280;9226;47.858;9.594;2023-07-09T06:05:01;95727.50;;;30.99;38.37
18201;BME280;9226;47.858;9.594;2023-07-09T06:07:27;95720.31;;;31.27;37.91
18201;BME280;9226;47.858;9.594;2023-07-09T06:09:53;95725.19;;;31.42;38.30
18201;BME280;9226;47.858;9.594;2023-07-09T06:12:18;95717.78;;;31.76;37.27
18201;BME280;9226;47.858;9.594;2023-07-09T06:14:45;95720.56;;;31.98;35.98
18201;BME280;9226;47.858;9.594;2023-07-09T06:17:10;95724.94;;;32.16;35.28
18201;BME280;9226;47.858;9.594;2023-07-09T06:19:36;95722.63;;;32.52;35.46
18201;BME280;9226;47.858;9.594;2023-07-09T06:22:02;95725.66;;;32.73;35.08
18201;BME280;9226;47.858;9.594;2023-07-09T06:24:27;95718.13;;;32.90;34.21
18201;BME280;9226;47.858;9.594;2023-07-09T06:26:52;95712.00;;;33.10;33.64
18201;BME280;9226;47.858;9.594;2023-07-09T06:29:18;95715.03;;;33.14;33.17
18201;BME280;9226;47.858;9.594;2023-07-09T06:31:43;95715.28;;;33.40;33.88
18201;BME280;9226;47.858;9.594;2023-07-09T06:34:09;95712.91;;;33.86;32.96
18201;BME280;9226;47.858;9.594;2023-07-09T06:36:35;95722.09;;;33.69;32.47
18201;BME280;9226;47.858;9.594;2023-07-09T06:39:00;95721.19;;;33.91;32.68
18201;BME280;9226;47.858;9.594;2023-07-09T06:41:26;95724.06;;;34.17;32.84
18201;BME280;9226;47.858;9.594;2023-07-09T06:43:51;95724.72;;;34.39;31.96
18201;BME280;9226;47.858;9.594;2023-07-09T06:46:18;95727.06;;;34.73;32.06
18201;BME280;9226;47.858;9.594;2023-07-09T06:48:44;95729.03;;;34.88;31.05
18201;BME280;9226;47.858;9.594;2023-07-09T06:51:09;95732.41;;;35.11;31.11
18201;BME280;9226;47.858;9.594;2023-07-09T06:53:35;95726.06;;;35.10;30.96
18201;BME280;9226;47.858;9.594;2023-07-09T06:56:01;95728.84;;;35.46;31.12
18201;BME280;9226;47.858;9.594;2023-07-09T06:58:29;95724.69;;;35.85;30.38
18201;BME280;9226;47.858;9.594;2023-07-09T07:00:57;95727.19;;;35.86;29.84
18201;BME280;9226;47.858;9.594;2023-07-09T07:03:22;95718.91;;;35.71;29.92
18201;BME280;9226;47.858;9.594;2023-07-09T07:05:49;95723.91;;;35.33;30.15
18201;BME280;9226;47.858;9.594;2023-07-09T07:08:17;95726.94;;;35.78;29.92
18201;BME280;9226;47.858;9.594;2023-07-09T07:10:44;95720.03;;;35.80;29.63
18201;BME280;9226;47.858;9.594;2023-07-09T07:13:09;95719.94;;;36.11;29.13
18201;BME280;9226;47.858;9.594;2023-07-09T07:15:37;95715.03;;;35.88;29.41
18201;BME280;9226;47.858;9.594;2023-07-09T07:18:03;95713.34;;;36.12;29.66
18201;BME280;9226;47.858;9.594;2023-07-09T07:20:29;95714.44;;;36.06;29.77
18201;BME280;9226;47.858;9.594;2023-07-09T07:22:55;95711.81;;;36.51;29.11
18201;BME280;9226;47.858;9.594;2023-07-09T07:25:21;95707.59;;;36.74;29.08
18201;BME280;9226;47.858;9.594;2023-07-09T07:27:47;95711.34;;;36.93;29.08
18201;BME280;9226;47.858;9.594;2023-07-09T07:30:13;95714.38;;;36.92;28.96
18201;BME280;9226;47.858;9.594;2023-07-09T07:32:45;95717.34;;;37.06;27.87
18201;BME280;9226;47.858;9.594;2023-07-09T07:35:10;95722.50;;;37.23;28.05
18201;BME280;9226;47.858;9.594;2023-07-09T07:37:36;95721.16;;;37.15;27.97
18201;BME280;9226;47.858;9.594;2023-07-09T07:40:01;95717.28;;;37.11;27.90
18201;BME280;9226;47.858;9.594;2023-07-09T07:42:29;95715.44;;;37.41;27.74
18201;BME280;9226;47.858;9.594;2023-07-09T07:44:55;95711.22;;;37.48;27.72
18201;BME280;9226;47.858;9.594;2023-07-09T07:47:20;95711.38;;;37.62;27.95
18201;BME280;9226;47.858;9.594;2023-07-09T07:49:46;95722.91;;;37.75;27.70
18201;BME280;9226;47.858;9.594;2023-07-09T07:52:11;95713.69;;;37.85;27.74
18201;BME280;9226;47.858;9.594;2023-07-09T07:54:37;95708.69;;;38.11;27.64
18201;BME280;9226;47.858;9.594;2023-07-09T07:57:03;95711.22;;;37.83;27.53
18201;BME280;9226;47.858;9.594;2023-07-09T07:59:29;95703.31;;;37.95;27.08
18201;BME280;9226;47.858;9.594;2023-07-09T08:01:55;95705.75;;;38.02;27.38
18201;BME280;9226;47.858;9.594;2023-07-09T08:04:20;95705.47;;;38.28;27.27
18201;BME280;9226;47.858;9.594;2023-07-09T08:06:45;95698.63;;;38.44;26.99
18201;BME280;9226;47.858;9.594;2023-07-09T08:09:11;95702.00;;;38.17;26.99
18201;BME280;9226;47.858;9.594;2023-07-09T08:11:36;95703.81;;;38.27;27.17
18201;BME280;9226;47.858;9.594;2023-07-09T08:14:02;95700.66;;;38.39;27.43
18201;BME280;9226;47.858;9.594;2023-07-09T08:16:27;95697.28;;;38.42;26.50
18201;BME280;9226;47.858;9.594;2023-07-09T08:18:53;95704.84;;;38.55;26.25
18201;BME280;9226;47.858;9.594;2023-07-09T08:21:18;95706.88;;;38.49;26.68
18201;BME280;9226;47.858;9.594;2023-07-09T08:23:45;95699.59;;;38.53;26.58
18201;BME280;9226;47.858;9.594;2023-07-09T08:26:11;95703.13;;;38.40;26.12
18201;BME280;9226;47.858;9.594;2023-07-09T08:28:37;95710.06;;;38.37;26.42
18201;BME280;9226;47.858;9.594;2023-07-09T08:31:03;95709.56;;;38.06;26.53
18201;BME280;9226;47.858;9.594;2023-07-09T08:33:29;95707.25;;;38.18;27.49
18201;BME280;9226;47.858;9.594;2023-07-09T08:35:54;95708.16;;;38.09;26.49
18201;BME280;9226;47.858;9.594;2023-07-09T08:38:21;95706.31;;;38.28;26.77
18201;BME280;9226;47.858;9.594;2023-07-09T08:40:57;95700.03;;;38.17;25.76
18201;BME280;9226;47.858;9.594;2023-07-09T08:43:32;95705.03;;;38.40;26.07
18201;BME280;9226;47.858;9.594;2023-07-09T08:48:39;95704.66;;;38.27;25.85
18201;BME280;9226;47.858;9.594;2023-07-09T08:51:27;95714.22;;;38.11;26.20
18201;BME280;9226;47.858;9.594;2023-07-09T08:53:57;95708.41;;;38.61;26.26
18201;BME280;9226;47.858;9.594;2023-07-09T08:56:24;95708.78;;;38.30;26.12
18201;BME280;9226;47.858;9.594;2023-07-09T08:58:52;95703.81;;;38.51;26.32
18201;BME280;9226;47.858;9.594;2023-07-09T09:01:22;95707.25;;;38.67;25.94
18201;BME280;9226;47.858;9.594;2023-07-09T09:04:02;95704.25;;;38.58;25.53
18201;BME280;9226;47.858;9.594;2023-07-09T09:06:30;95709.22;;;38.61;25.39
18201;BME280;9226;47.858;9.594;2023-07-09T09:09:12;95706.28;;;38.77;24.60
18201;BME280;9226;47.858;9.594;2023-07-09T09:11:45;95707.03;;;38.58;25.69
18201;BME280;9226;47.858;9.594;2023-07-09T09:14:27;95707.00;;;39.01;24.38
18201;BME280;9226;47.858;9.594;2023-07-09T09:16:55;95700.53;;;39.11;24.21
18201;BME280;9226;47.858;9.594;2023-07-09T09:21:58;95695.25;;;39.29;24.55
18201;BME280;9226;47.858;9.594;2023-07-09T09:24:38;95691.47;;;39.57;24.73
18201;BME280;9226;47.858;9.594;2023-07-09T09:27:08;95704.75;;;39.41;24.73
18201;BME280;9226;47.858;9.594;2023-07-09T09:29:33;95702.13;;;39.31;24.22
18201;BME280;9226;47.858;9.594;2023-07-09T09:32:09;95696.59;;;39.12;25.19
18201;BME280;9226;47.858;9.594;2023-07-09T09:34:40;95692.50;;;39.10;23.77
18201;BME280;9226;47.858;9.594;2023-07-09T09:37:11;95693.31;;;39.10;23.81
18201;BME280;9226;47.858;9.594;2023-07-09T09:39:38;95697.88;;;38.82;24.85
18201;BME280;9226;47.858;9.594;2023-07-09T09:42:10;95706.75;;;38.60;24.49
18201;BME280;9226;47.858;9.594;2023-07-09T09:44:43;95703.72;;;38.37;23.99
18201;BME280;9226;47.858;9.594;2023-07-09T09:47:10;95701.56;;;38.53;23.61
18201;BME280;9226;47.858;9.594;2023-07-09T09:49:43;95700.44;;;38.54;24.05
18201;BME280;9226;47.858;9.594;2023-07-09T09:52:16;95694.84;;;38.59;23.59
18201;BME280;9226;47.858;9.594;2023-07-09T09:54:54;95695.22;;;38.28;22.94
18201;BME280;9226;47.858;9.594;2023-07-09T09:57:23;95693.75;;;38.36;23.39
18201;BME280;9226;47.858;9.594;2023-07-09T09:59:49;95700.81;;;38.23;23.72
18201;BME280;9226;47.858;9.594;2023-07-09T10:02:20;95702.34;;;37.81;23.67
18201;BME280;9226;47.858;9.594;2023-07-09T10:04:46;95706.38;;;37.94;23.92
18201;BME280;9226;47.858;9.594;2023-07-09T10:09:53;95691.91;;;37.73;23.13
18201;BME280;9226;47.858;9.594;2023-07-09T10:17:35;95692.50;;;38.23;21.61
18201;BME280;9226;47.858;9.594;2023-07-09T10:20:23;95689.06;;;38.31;21.11
18201;BME280;9226;47.858;9.594;2023-07-09T10:26:11;95683.63;;;39.07;21.70
18201;BME280;9226;47.858;9.594;2023-07-09T10:34:54;95683.59;;;39.13;20.05
18201;BME280;9226;47.858;9.594;2023-07-09T10:39:57;95686.47;;;39.02;21.03
18201;BME280;9226;47.858;9.594;2023-07-09T10:44:56;95678.06;;;38.69;22.13
18201;BME280;9226;47.858;9.594;2023-07-09T10:47:35;95674.47;;;38.88;23.24
18201;BME280;9226;47.858;9.594;2023-07-09T10:50:04;95676.88;;;38.32;23.46
18201;BME280;9226;47.858;9.594;2023-07-09T10:52:35;95670.38;;;38.42;23.15
18201;BME280;9226;47.858;9.594;2023-07-09T10:55:13;95668.56;;;38.95;23.32
18201;BME280;9226;47.858;9.594;2023-07-09T10:58:11;95662.41;;;39.17;23.57
18201;BME280;9226;47.858;9.594;2023-07-09T11:00:45;95656.78;;;38.84;23.26
18201;BME280;9226;47.858;9.594;2023-07-09T11:03:19;95660.41;;;38.60;22.93
18201;BME280;9226;47.858;9.594;2023-07-09T11:05:48;95659.38;;;38.56;22.67
18201;BME280;9226;47.858;9.594;2023-07-09T11:08:21;95653.13;;;38.69;22.97
18201;BME280;9226;47.858;9.594;2023-07-09T11:10:59;95652.50;;;38.72;23.13
18201;BME280;9226;47.858;9.594;2023-07-09T11:13:34;95650.63;;;38.87;23.70
18201;BME280;9226;47.858;9.594;2023-07-09T11:16:02;95633.75;;;39.02;23.17
18201;BME280;9226;47.858;9.594;2023-07-09T11:18:32;95629.63;;;39.19;23.14
18201;BME280;9226;47.858;9.594;2023-07-09T11:21:07;95630.88;;;38.94;23.39
18201;BME280;9226;47.858;9.594;2023-07-09T11:24:02;95629.94;;;38.60;23.17
18201;BME280;9226;47.858;9.594;2023-07-09T11:26:35;95630.78;;;38.61;23.48
18201;BME280;9226;47.858;9.594;2023-07-09T11:39:28;95628.50;;;38.00;23.37
18201;BME280;9226;47.858;9.594;2023-07-09T11:41:55;95628.34;;;38.11;23.65
18201;BME280;9226;47.858;9.594;2023-07-09T11:44:26;95627.56;;;37.86;23.75
18201;BME280;9226;47.858;9.594;2023-07-09T11:49:51;95629.19;;;37.87;23.25
18201;BME280;9226;47.858;9.594;2023-07-09T11:52:22;95622.91;;;37.18;24.07
18201;BME280;9226;47.858;9.594;2023-07-09T11:54:49;95616.91;;;37.45;23.84
18201;BME280;9226;47.858;9.594;2023-07-09T11:57:17;95612.25;;;37.64;23.99
18201;BME280;9226;47.858;9.594;2023-07-09T11:59:43;95615.97;;;37.55;23.38
18201;BME280;9226;47.858;9.594;2023-07-09T12:02:19;95611.25;;;37.55;23.67
18201;BME280;9226;47.858;9.594;2023-07-09T12:04:50;95621.44;;;37.30;23.61
18201;BME280;9226;47.858;9.594;2023-07-09T12:07:17;95607.38;;;37.56;23.50
18201;BME280;9226;47.858;9.594;2023-07-09T12:09:48;95611.44;;;37.35;23.75
18201;BME280;9226;47.858;9.594;2023-07-09T12:12:21;95613.28;;;37.10;24.72
18201;BME280;9226;47.858;9.594;2023-07-09T12:14:48;95606.06;;;37.14;23.73
18201;BME280;9226;47.858;9.594;2023-07-09T12:17:14;95613.06;;;36.67;24.26
18201;BME280;9226;47.858;9.594;2023-07-09T12:19:40;95603.34;;;36.30;24.62
18201;BME280;9226;47.858;9.594;2023-07-09T12:22:16;95602.00;;;36.12;24.72
18201;BME280;9226;47.858;9.594;2023-07-09T12:24:43;95597.13;;;36.53;24.58
18201;BME280;9226;47.858;9.594;2023-07-09T12:27:23;95602.72;;;36.83;24.57
18201;BME280;9226;47.858;9.594;2023-07-09T12:29:56;95595.34;;;36.73;24.76
18201;BME280;9226;47.858;9.594;2023-07-09T12:32:22;95599.56;;;37.00;25.02
18201;BME280;9226;47.858;9.594;2023-07-09T12:34:53;95596.91;;;36.84;25.02
18201;BME280;9226;47.858;9.594;2023-07-09T12:37:20;95591.28;;;36.05;23.73
18201;BME280;9226;47.858;9.594;2023-07-09T12:39:49;95594.94;;;36.45;23.60
18201;BME280;9226;47.858;9.594;2023-07-09T12:42:18;95588.69;;;36.34;23.31
18201;BME280;9226;47.858;9.594;2023-07-09T12:44:45;95583.31;;;36.48;23.34
18201;BME280;9226;47.858;9.594;2023-07-09T12:47:14;95576.31;;;36.66;23.15
18201;BME280;9226;47.858;9.594;2023-07-09T12:49:42;95576.06;;;36.63;23.55
18201;BME280;9226;47.858;9.594;2023-07-09T12:52:19;95578.13;;;36.42;24.08
18201;BME280;9226;47.858;9.594;2023-07-09T12:54:59;95585.25;;;36.48;22.91
18201;BME280;9226;47.858;9.594;2023-07-09T12:57:25;95571.59;;;36.22;23.86
18201;BME280;9226;47.858;9.594;2023-07-09T12:59:54;95572.25;;;36.53;23.20
18201;BME280;9226;47.858;9.594;2023-07-09T13:02:25;95571.78;;;36.41;23.25
18201;BME280;9226;47.858;9.594;2023-07-09T13:05:00;95575.31;;;35.97;23.13
18201;BME280;9226;47.858;9.594;2023-07-09T13:07:27;95570.47;;;36.28;23.04
18201;BME280;9226;47.858;9.594;2023-07-09T13:09:54;95564.88;;;36.44;23.00
18201;BME280;9226;47.858;9.594;2023-07-09T13:12:28;95557.69;;;36.43;23.73
18201;BME280;9226;47.858;9.594;2023-07-09T13:14:54;95557.16;;;36.35;23.38
18201;BME280;9226;47.858;9.594;2023-07-09T13:17:20;95560.00;;;36.65;23.22
18201;BME280;9226;47.858;9.594;2023-07-09T13:19:46;95557.34;;;36.49;23.26
18201;BME280;9226;47.858;9.594;2023-07-09T13:22:14;95551.44;;;36.16;23.77
18201;BME280;9226;47.858;9.594;2023-07-09T13:24:40;95547.69;;;36.47;23.60
18201;BME280;9226;47.858;9.594;2023-07-09T13:27:10;95546.53;;;36.53;23.27
18201;BME280;9226;47.858;9.594;2023-07-09T13:29:36;95546.47;;;36.18;22.95
18201;BME280;9226;47.858;9.594;2023-07-09T13:32:02;95550.25;;;36.38;23.15
18201;BME280;9226;47.858;9.594;2023-07-09T13:34:33;95553.59;;;36.35;22.90
18201;BME280;9226;47.858;9.594;2023-07-09T13:37:00;95538.16;;;36.29;22.27
18201;BME280;9226;47.858;9.594;2023-07-09T13:39:25;95535.34;;;36.39;22.61
18201;BME280;9226;47.858;9.594;2023-07-09T13:41:51;95542.28;;;36.66;21.19
18201;BME280;9226;47.858;9.594;2023-07-09T13:44:23;95541.34;;;36.46;21.00
18201;BME280;9226;47.858;9.594;2023-07-09T13:46:50;95541.53;;;36.60;20.81
18201;BME280;9226;47.858;9.594;2023-07-09T13:49:18;95544.16;;;36.41;20.43
18201;BME280;9226;47.858;9.594;2023-07-09T13:51:46;95546.78;;;36.17;21.08
18201;BME280;9226;47.858;9.594;2023-07-09T13:56:42;95544.63;;;36.48;20.95
18201;BME280;9226;47.858;9.594;2023-07-09T13:59:14;95546.09;;;36.35;21.64
18201;BME280;9226;47.858;9.594;2023-07-09T14:01:40;95540.34;;;36.32;20.69
18201;BME280;9226;47.858;9.594;2023-07-09T14:04:05;95542.03;;;36.22;20.81